Gnv Atlas — IBUH — position and weather

sailwx.info

Track history (hours):
 
Tides and Currents Weather Stations Pressure Air Temp Water Temp Dewpoint Dewpoint Depression Visibility Wind Speed Wind Dir Waves Ship Positions

Gnv Atlas

Last reported at 2017-May-26 07:00 UTC. Time now 2017-May-26 07:17 UTC.
Position N 41°38' E 003°05'.

Length 162 m; draft 6.1 m.

Type: Passenger vessel. MMSI: 247163100.

Date/timePositionNaut miles runAvg speedWind from/ knotsBaromVisibWave heightAir tempDewpointWater temp
2017-May-26 07:00N 41°38' E 003°05'1019.1
2017-May-26 06:30N 41°30' E 002°58'918.7
2017-May-26 06:00N 41°22' E 002°51'1018.4
2017-May-26 05:28N 41°14' E 002°43'818.2
2017-May-26 05:00N 41°07' E 002°37'918.5
2017-May-26 04:30N 40°59' E 002°30'919.0
2017-May-26 04:00N 40°51' E 002°23'1019.4
2017-May-26 03:30N 40°43' E 002°16'1019.2
2017-May-26 03:00N 40°35' E 002°09'1019.1
2017-May-26 02:30N 40°27' E 002°02'919.0
2017-May-26 02:00N 40°20' E 001°55'1018.9
2017-May-26 01:30N 40°12' E 001°48'1019.0
2017-May-26 01:00N 40°04' E 001°42'918.9
2017-May-26 00:30N 39°56' E 001°35'1019.1
2017-May-26 00:00N 39°48' E 001°28'2019.3
2017-May-25 23:00N 39°31' E 001°15'1019.2
2017-May-25 22:27N 39°22' E 001°07'819.2
2017-May-25 22:00N 39°16' E 000°59'1019.1
2017-May-25 21:30N 39°09' E 000°52'1019.2
2017-May-25 21:00N 39°01' E 000°45'9119.2
2017-May-25 16:16N 37°45' W 000°19'519.3
2017-May-25 16:00N 37°41' W 000°23'918.9
2017-May-25 15:30N 37°34' W 000°30'918.6
2017-May-25 15:00N 37°27' W 000°39'918.8
2017-May-25 14:30N 37°20' W 000°47'21618.3
2017-May-25 02:44N 36°02' W 004°57'419.7
2017-May-25 02:30N 36°02' W 005°03'1020.1
2017-May-25 02:00N 36°00' W 005°15'1019.4
2017-May-25 01:31N 35°57' W 005°26'3 0.3
2017-May-24 15:23N 35°56' W 005°31'616.9
2017-May-24 15:00N 36°00' W 005°24'816.7
2017-May-24 14:30N 36°02' W 005°14'21315.9
2017-May-24 01:09N 37°12' W 001°04'717.4
2017-May-24 00:45N 37°17' W 000°58'416.9
2017-May-24 00:30N 37°20' W 000°54'817.0
2017-May-24 00:00N 37°25' W 000°46'917.2
2017-May-23 23:29N 37°31' W 000°37'817.2
2017-May-23 23:00N 37°37' W 000°30'917.0
2017-May-23 22:30N 37°45' W 000°26'1816.8
2017-May-23 21:24N 38°01' W 000°14'716.9
2017-May-23 21:00N 38°07' W 000°09'917.1
2017-May-23 20:30N 38°14' W 000°03'1117.5
2017-May-23 19:52N 38°23' E 000°05'9617.4
2017-May-23 14:22N 39°44' E 001°10'1517.1
2017-May-23 13:30N 39°58' E 001°14'917.2
2017-May-23 13:00N 40°07' E 001°17'917.4
2017-May-23 12:30N 40°13' E 001°25'917.1
2017-May-23 12:00N 40°20' E 001°31'917.2
2017-May-23 11:30N 40°28' E 001°36'917.1
2017-May-23 11:00N 40°36' E 001°41'917.4
2017-May-23 10:30N 40°43' E 001°47'918.1
2017-May-23 10:00N 40°51' E 001°53'918.2
2017-May-23 09:30N 40°59' E 001°59'917.9
2017-May-23 09:00N 41°07' E 002°04'917.6
2017-May-23 08:30N 41°15' E 002°09'612.6
2017-May-23 08:00N 41°21' E 002°10'1 1.6
2017-May-23 07:29N 41°22' E 002°11'0 0.0
2017-May-23 06:00N 41°22' E 002°11'0 0.0
2017-May-23 05:29N 41°22' E 002°11'0 0.0
2017-May-23 04:59N 41°22' E 002°11'0 0.0
2017-May-23 02:41N 41°22' E 002°11'0 0.9
2017-May-23 02:24N 41°22' E 002°11'5 9.1
2017-May-23 01:53N 41°17' E 002°12'2419.1
2017-May-23 00:39N 41°29' E 002°39'319.6
2017-May-23 00:29N 41°30' E 002°43'2119.6
2017-May-22 23:24N 41°43' E 003°06'716.8
2017-May-22 23:00N 41°48' E 003°12'1017.0
2017-May-22 22:25N 41°56' E 003°19'5817.8
2017-May-22 19:09N 42°53' E 003°37'217.7
2017-May-22 19:00N 42°55' E 003°38'1017.6
2017-May-22 18:28N 43°05' E 003°40'817.7
2017-May-22 18:00N 43°13' E 003°43'917.1
2017-May-22 17:30N 43°21' E 003°45'3 6.6
2017-May-22 16:59N 43°24' E 003°42'0 0.0
2017-May-22 16:29N 43°24' E 003°42'0 0.0
2017-May-22 15:29N 43°24' E 003°42'0 0.0
2017-May-22 14:59N 43°24' E 003°42'0 0.0
2017-May-22 13:59N 43°24' E 003°42'0 0.0
2017-May-22 12:50N 43°24' E 003°42'0 0.0
2017-May-22 12:08N 43°24' E 003°42'0 0.0
2017-May-22 11:59N 43°24' E 003°42'0 0.0
2017-May-22 10:41N 43°24' E 003°42'0 0.0
2017-May-22 10:14N 43°24' E 003°42'0 0.0
2017-May-22 09:56N 43°24' E 003°42'0 0.0
2017-May-22 09:17N 43°24' E 003°42'0 0.0
2017-May-22 08:08N 43°24' E 003°42'0 0.0
2017-May-22 07:44N 43°24' E 003°42'0 0.0
2017-May-22 07:14N 43°24' E 003°42'0 0.0
2017-May-22 06:57N 43°24' E 003°42'2 3.5
2017-May-22 06:31N 43°24' E 003°44'1115.2
2017-May-22 05:48N 43°13' E 003°44'917.4
2017-May-22 05:17N 43°04' E 003°41'717.6
2017-May-22 04:53N 42°57' E 003°39'2417.7
2017-May-22 03:32N 42°34' E 003°33'117.5
2017-May-22 03:30N 42°33' E 003°33'1717.9
2017-May-22 02:33N 42°16' E 003°29'117.8
2017-May-22 02:29N 42°15' E 003°28'917.6
2017-May-22 02:00N 42°07' E 003°26'917.7
2017-May-22 01:30N 41°59' E 003°22'1217.8
2017-May-22 00:49N 41°47' E 003°16'617.8
2017-May-22 00:28N 41°42' E 003°11'817.7
2017-May-22 00:00N 41°36' E 003°04'917.7
2017-May-21 23:31N 41°29' E 002°57'917.3
2017-May-21 23:00N 41°22' E 002°50'917.1
2017-May-21 22:30N 41°15' E 002°44'917.4
2017-May-21 22:00N 41°08' E 002°37'917.8
2017-May-21 21:30N 40°60' E 002°31'917.9
2017-May-21 21:00N 40°52' E 002°25'918.1
2017-May-21 20:31N 40°45' E 002°18'918.0
2017-May-21 20:00N 40°37' E 002°12'918.0
2017-May-21 19:30N 40°30' E 002°05'917.8
2017-May-21 19:00N 40°23' E 001°58'917.8
2017-May-21 18:30N 40°15' E 001°52'917.7
2017-May-21 18:00N 40°08' E 001°45'917.8
2017-May-21 17:30N 40°01' E 001°38'917.7
2017-May-21 17:00N 39°54' E 001°32'917.8
2017-May-21 16:31N 39°46' E 001°25'2017.7
2017-May-21 15:23N 39°30' E 001°11'817.7
2017-May-21 14:54N 39°23' E 001°05'1617.8
2017-May-21 14:00N 39°09' E 000°53'10419.1
2017-May-21 08:35N 37°44' W 000°21'119.3
2017-May-21 08:30N 37°43' W 000°22'1219.0
2017-May-21 07:53N 37°33' W 000°31'1318.7
2017-May-21 07:13N 37°25' W 000°43'418.8
2017-May-21 07:00N 37°22' W 000°47'1118.6
2017-May-21 06:26N 37°15' W 000°57'21318.0
2017-May-20 18:35N 36°04' W 005°06'219.9
2017-May-20 18:30N 36°03' W 005°08'1019.3
2017-May-20 18:00N 35°60' W 005°19'10 1.1
2017-May-20 08:36N 35°57' W 005°32'115.2
2017-May-20 08:30N 35°58' W 005°31'816.1
2017-May-20 08:00N 36°01' W 005°21'815.9
2017-May-20 07:30N 36°01' W 005°11'213 9.3
2017-May-19 08:35N 37°10' W 001°00'517.5
2017-May-19 08:19N 37°14' W 000°56'917.2
2017-May-19 07:49N 37°20' W 000°49'517.1
2017-May-19 07:30N 37°25' W 000°45'1017.3
2017-May-19 06:55N 37°32' W 000°36'717.3
2017-May-19 06:30N 37°38' W 000°31'15419.2
2017-May-18 22:30N 39°45' E 001°19'1019.4
2017-May-18 22:00N 39°53' E 001°27'1019.6
2017-May-18 21:30N 40°01' E 001°34'1019.9
2017-May-18 21:01N 40°09' E 001°42'1019.9
2017-May-18 20:30N 40°17' E 001°50'1019.5
2017-May-18 20:00N 40°25' E 001°57'1019.3
2017-May-18 19:30N 40°33' E 002°04'1019.4
2017-May-18 19:01N 40°41' E 002°11'1019.4
2017-May-18 18:30N 40°49' E 002°19'1019.3
2017-May-18 18:00N 40°57' E 002°26'918.9
2017-May-18 17:30N 41°04' E 002°33'1019.4
2017-May-18 17:01N 41°12' E 002°41'1019.4
2017-May-18 16:30N 41°20' E 002°48'1019.4
2017-May-18 16:01N 41°28' E 002°55'1819.2
2017-May-18 15:05N 41°43' E 003°09'419.0
2017-May-18 14:53N 41°46' E 003°12'918.8
2017-May-18 14:26N 41°53' E 003°18'5618.8
2017-May-18 11:26N 42°48' E 003°35'919.1
2017-May-18 10:58N 42°57' E 003°38'1018.9
2017-May-18 10:25N 43°07' E 003°42'819.0
2017-May-18 10:01N 43°14' E 003°44'918.3
2017-May-18 09:31N 43°23' E 003°44'2 3.3
2017-May-18 09:01N 43°24' E 003°42'0 0.0
2017-May-18 08:28N 43°24' E 003°42'0 0.0
2017-May-18 07:58N 43°24' E 003°42'0 0.0
2017-May-18 07:28N 43°24' E 003°42'0 0.0
2017-May-18 06:40N 43°24' E 003°42'0 0.0
2017-May-18 06:25N 43°24' E 003°42'0 0.0
2017-May-18 05:55N 43°24' E 003°42'0 0.0
2017-May-18 05:28N 43°24' E 003°42'0 0.0
2017-May-18 04:22N 43°24' E 003°42'0 0.0
2017-May-18 03:49N 43°24' E 003°42'0 0.0
2017-May-18 03:28N 43°24' E 003°42'0 0.0
2017-May-18 02:58N 43°24' E 003°42'0 0.0
2017-May-18 02:28N 43°24' E 003°42'0 0.0
2017-May-18 01:55N 43°24' E 003°42'0 0.0
2017-May-18 01:28N 43°24' E 003°42'0 0.0
2017-May-18 00:52N 43°24' E 003°42'0 0.0
2017-May-18 00:13N 43°24' E 003°42'0 0.0
2017-May-17 23:40N 43°24' E 003°42'0 0.0
2017-May-17 23:25N 43°24' E 003°42'0 0.0
2017-May-17 22:55N 43°24' E 003°42'0 0.0
2017-May-17 22:28N 43°24' E 003°42'0 0.0
2017-May-17 21:58N 43°24' E 003°42'0 0.0
2017-May-17 21:28N 43°24' E 003°42'0 0.0
2017-May-17 20:58N 43°24' E 003°42'0 0.0
2017-May-17 20:28N 43°24' E 003°42'0 0.0
2017-May-17 19:58N 43°24' E 003°42'0 0.0
2017-May-17 19:28N 43°24' E 003°42'0 0.0
2017-May-17 18:55N 43°24' E 003°42'0 0.0
2017-May-17 18:25N 43°24' E 003°42'0 0.0
2017-May-17 17:58N 43°24' E 003°42'0 0.0
2017-May-17 17:28N 43°24' E 003°42'0 0.0
2017-May-17 10:59N 43°24' E 003°42'4 6.7
2017-May-17 10:28N 43°21' E 003°45'2418.0
2017-May-17 09:08N 42°57' E 003°41'1319.1
2017-May-17 08:28N 42°45' E 003°44'1217.9
2017-May-17 07:48N 42°33' E 003°45'2518.5
2017-May-17 06:29N 42°13' E 003°25'2219.2
2017-May-17 05:20N 41°52' E 003°18'619.3
2017-May-17 05:00N 41°47' E 003°13'1019.3
2017-May-17 04:30N 41°39' E 003°06'1019.4
2017-May-17 04:00N 41°31' E 002°58'918.9
2017-May-17 03:30N 41°23' E 002°51'1018.7
2017-May-17 02:57N 41°15' E 002°43'818.9
2017-May-17 02:30N 41°08' E 002°37'1019.2
2017-May-17 02:00N 40°59' E 002°30'1019.4
2017-May-17 01:31N 40°52' E 002°23'1019.1
2017-May-17 01:00N 40°44' E 002°15'1018.9
2017-May-17 00:30N 40°36' E 002°09'918.9
2017-May-17 00:00N 40°28' E 002°02'1019.0
2017-May-16 23:30N 40°20' E 001°55'919.0
2017-May-16 23:00N 40°12' E 001°48'1019.0
2017-May-16 22:30N 40°04' E 001°41'1019.0
2017-May-16 22:00N 39°56' E 001°34'1019.2
2017-May-16 21:28N 39°48' E 001°27'2119.1
2017-May-16 20:23N 39°31' E 001°11'918.9
2017-May-16 19:56N 39°24' E 001°05'819.1
2017-May-16 19:30N 39°17' E 000°59'1019.2
2017-May-16 19:00N 39°09' E 000°52'1019.7
2017-May-16 18:30N 39°01' E 000°45'2219.6
2017-May-16 17:23N 38°43' E 000°29'819.8
2017-May-16 17:00N 38°36' E 000°24'1019.7
2017-May-16 16:30N 38°28' E 000°17'1119.9
2017-May-16 15:57N 38°19' E 000°09'919.8
2017-May-16 15:31N 38°12' E 000°03'1020.0
2017-May-16 15:01N 38°03' W 000°04'1020.0
2017-May-16 14:30N 37°55' W 000°11'2019.7
2017-May-16 13:30N 37°39' W 000°25'1019.4
2017-May-16 13:00N 37°31' W 000°33'1019.6
2017-May-16 12:30N 37°25' W 000°43'1019.4
2017-May-16 12:00N 37°19' W 000°52'1318.9
2017-May-16 11:20N 37°10' W 001°04'718.8
2017-May-16 10:57N 37°06' W 001°11'  
Track history (hours):
 
Tides and Currents Weather Stations Pressure Air Temp Water Temp Dewpoint Dewpoint Depression Visibility Wind Speed Wind Dir Waves Ship Positions

Gnv Atlas

Last reported at 2017-May-26 07:00 UTC. Time now 2017-May-26 07:17 UTC.
Position N 41°38' E 003°05'.

Length 162 m; draft 6.1 m.

Type: Passenger vessel. MMSI: 247163100.

Date/timePositionNaut miles runAvg speedWind from/ knotsBaromVisibWave heightAir tempDewpointWater temp
2017-May-26 07:00N 41°38' E 003°05'1019.1
2017-May-26 06:30N 41°30' E 002°58'918.7
2017-May-26 06:00N 41°22' E 002°51'1018.4
2017-May-26 05:28N 41°14' E 002°43'818.2
2017-May-26 05:00N 41°07' E 002°37'918.5
2017-May-26 04:30N 40°59' E 002°30'919.0
2017-May-26 04:00N 40°51' E 002°23'1019.4
2017-May-26 03:30N 40°43' E 002°16'1019.2
2017-May-26 03:00N 40°35' E 002°09'1019.1
2017-May-26 02:30N 40°27' E 002°02'919.0
2017-May-26 02:00N 40°20' E 001°55'1018.9
2017-May-26 01:30N 40°12' E 001°48'1019.0
2017-May-26 01:00N 40°04' E 001°42'918.9
2017-May-26 00:30N 39°56' E 001°35'1019.1
2017-May-26 00:00N 39°48' E 001°28'2019.3
2017-May-25 23:00N 39°31' E 001°15'1019.2
2017-May-25 22:27N 39°22' E 001°07'819.2
2017-May-25 22:00N 39°16' E 000°59'1019.1
2017-May-25 21:30N 39°09' E 000°52'1019.2
2017-May-25 21:00N 39°01' E 000°45'9119.2
2017-May-25 16:16N 37°45' W 000°19'519.3
2017-May-25 16:00N 37°41' W 000°23'918.9
2017-May-25 15:30N 37°34' W 000°30'918.6
2017-May-25 15:00N 37°27' W 000°39'918.8
2017-May-25 14:30N 37°20' W 000°47'21618.3
2017-May-25 02:44N 36°02' W 004°57'419.7
2017-May-25 02:30N 36°02' W 005°03'1020.1
2017-May-25 02:00N 36°00' W 005°15'1019.4
2017-May-25 01:31N 35°57' W 005°26'3 0.3
2017-May-24 15:23N 35°56' W 005°31'616.9
2017-May-24 15:00N 36°00' W 005°24'816.7
2017-May-24 14:30N 36°02' W 005°14'21315.9
2017-May-24 01:09N 37°12' W 001°04'717.4
2017-May-24 00:45N 37°17' W 000°58'416.9
2017-May-24 00:30N 37°20' W 000°54'817.0
2017-May-24 00:00N 37°25' W 000°46'917.2
2017-May-23 23:29N 37°31' W 000°37'817.2
2017-May-23 23:00N 37°37' W 000°30'917.0
2017-May-23 22:30N 37°45' W 000°26'1816.8
2017-May-23 21:24N 38°01' W 000°14'716.9
2017-May-23 21:00N 38°07' W 000°09'917.1
2017-May-23 20:30N 38°14' W 000°03'1117.5
2017-May-23 19:52N 38°23' E 000°05'9617.4
2017-May-23 14:22N 39°44' E 001°10'1517.1
2017-May-23 13:30N 39°58' E 001°14'917.2
2017-May-23 13:00N 40°07' E 001°17'917.4
2017-May-23 12:30N 40°13' E 001°25'917.1
2017-May-23 12:00N 40°20' E 001°31'917.2
2017-May-23 11:30N 40°28' E 001°36'917.1
2017-May-23 11:00N 40°36' E 001°41'917.4
2017-May-23 10:30N 40°43' E 001°47'918.1
2017-May-23 10:00N 40°51' E 001°53'918.2
2017-May-23 09:30N 40°59' E 001°59'917.9
2017-May-23 09:00N 41°07' E 002°04'917.6
2017-May-23 08:30N 41°15' E 002°09'612.6
2017-May-23 08:00N 41°21' E 002°10'1 1.6
2017-May-23 07:29N 41°22' E 002°11'0 0.0
2017-May-23 06:00N 41°22' E 002°11'0 0.0
2017-May-23 05:29N 41°22' E 002°11'0 0.0
2017-May-23 04:59N 41°22' E 002°11'0 0.0
2017-May-23 02:41N 41°22' E 002°11'0 0.9
2017-May-23 02:24N 41°22' E 002°11'5 9.1
2017-May-23 01:53N 41°17' E 002°12'2419.1
2017-May-23 00:39N 41°29' E 002°39'319.6
2017-May-23 00:29N 41°30' E 002°43'2119.6
2017-May-22 23:24N 41°43' E 003°06'716.8
2017-May-22 23:00N 41°48' E 003°12'1017.0
2017-May-22 22:25N 41°56' E 003°19'5817.8
2017-May-22 19:09N 42°53' E 003°37'217.7
2017-May-22 19:00N 42°55' E 003°38'1017.6
2017-May-22 18:28N 43°05' E 003°40'817.7
2017-May-22 18:00N 43°13' E 003°43'917.1
2017-May-22 17:30N 43°21' E 003°45'3 6.6
2017-May-22 16:59N 43°24' E 003°42'0 0.0
2017-May-22 16:29N 43°24' E 003°42'0 0.0
2017-May-22 15:29N 43°24' E 003°42'0 0.0
2017-May-22 14:59N 43°24' E 003°42'0 0.0
2017-May-22 13:59N 43°24' E 003°42'0 0.0
2017-May-22 12:50N 43°24' E 003°42'0 0.0
2017-May-22 12:08N 43°24' E 003°42'0 0.0
2017-May-22 11:59N 43°24' E 003°42'0 0.0
2017-May-22 10:41N 43°24' E 003°42'0 0.0
2017-May-22 10:14N 43°24' E 003°42'0 0.0
2017-May-22 09:56N 43°24' E 003°42'0 0.0
2017-May-22 09:17N 43°24' E 003°42'0 0.0
2017-May-22 08:08N 43°24' E 003°42'0 0.0
2017-May-22 07:44N 43°24' E 003°42'0 0.0
2017-May-22 07:14N 43°24' E 003°42'0 0.0
2017-May-22 06:57N 43°24' E 003°42'2 3.5
2017-May-22 06:31N 43°24' E 003°44'1115.2
2017-May-22 05:48N 43°13' E 003°44'917.4
2017-May-22 05:17N 43°04' E 003°41'717.6
2017-May-22 04:53N 42°57' E 003°39'2417.7
2017-May-22 03:32N 42°34' E 003°33'117.5
2017-May-22 03:30N 42°33' E 003°33'1717.9
2017-May-22 02:33N 42°16' E 003°29'117.8
2017-May-22 02:29N 42°15' E 003°28'917.6
2017-May-22 02:00N 42°07' E 003°26'917.7
2017-May-22 01:30N 41°59' E 003°22'1217.8
2017-May-22 00:49N 41°47' E 003°16'617.8
2017-May-22 00:28N 41°42' E 003°11'817.7
2017-May-22 00:00N 41°36' E 003°04'917.7
2017-May-21 23:31N 41°29' E 002°57'917.3
2017-May-21 23:00N 41°22' E 002°50'917.1
2017-May-21 22:30N 41°15' E 002°44'917.4
2017-May-21 22:00N 41°08' E 002°37'917.8
2017-May-21 21:30N 40°60' E 002°31'917.9
2017-May-21 21:00N 40°52' E 002°25'918.1
2017-May-21 20:31N 40°45' E 002°18'918.0
2017-May-21 20:00N 40°37' E 002°12'918.0
2017-May-21 19:30N 40°30' E 002°05'917.8
2017-May-21 19:00N 40°23' E 001°58'917.8
2017-May-21 18:30N 40°15' E 001°52'917.7
2017-May-21 18:00N 40°08' E 001°45'917.8
2017-May-21 17:30N 40°01' E 001°38'917.7
2017-May-21 17:00N 39°54' E 001°32'917.8
2017-May-21 16:31N 39°46' E 001°25'2017.7
2017-May-21 15:23N 39°30' E 001°11'817.7
2017-May-21 14:54N 39°23' E 001°05'1617.8
2017-May-21 14:00N 39°09' E 000°53'10419.1
2017-May-21 08:35N 37°44' W 000°21'119.3
2017-May-21 08:30N 37°43' W 000°22'1219.0
2017-May-21 07:53N 37°33' W 000°31'1318.7
2017-May-21 07:13N 37°25' W 000°43'418.8
2017-May-21 07:00N 37°22' W 000°47'1118.6
2017-May-21 06:26N 37°15' W 000°57'21318.0
2017-May-20 18:35N 36°04' W 005°06'219.9
2017-May-20 18:30N 36°03' W 005°08'1019.3
2017-May-20 18:00N 35°60' W 005°19'10 1.1
2017-May-20 08:36N 35°57' W 005°32'115.2
2017-May-20 08:30N 35°58' W 005°31'816.1
2017-May-20 08:00N 36°01' W 005°21'815.9
2017-May-20 07:30N 36°01' W 005°11'213 9.3
2017-May-19 08:35N 37°10' W 001°00'517.5
2017-May-19 08:19N 37°14' W 000°56'917.2
2017-May-19 07:49N 37°20' W 000°49'517.1
2017-May-19 07:30N 37°25' W 000°45'1017.3
2017-May-19 06:55N 37°32' W 000°36'717.3
2017-May-19 06:30N 37°38' W 000°31'15419.2
2017-May-18 22:30N 39°45' E 001°19'1019.4
2017-May-18 22:00N 39°53' E 001°27'1019.6
2017-May-18 21:30N 40°01' E 001°34'1019.9
2017-May-18 21:01N 40°09' E 001°42'1019.9
2017-May-18 20:30N 40°17' E 001°50'1019.5
2017-May-18 20:00N 40°25' E 001°57'1019.3
2017-May-18 19:30N 40°33' E 002°04'1019.4
2017-May-18 19:01N 40°41' E 002°11'1019.4
2017-May-18 18:30N 40°49' E 002°19'1019.3
2017-May-18 18:00N 40°57' E 002°26'918.9
2017-May-18 17:30N 41°04' E 002°33'1019.4
2017-May-18 17:01N 41°12' E 002°41'1019.4
2017-May-18 16:30N 41°20' E 002°48'1019.4
2017-May-18 16:01N 41°28' E 002°55'1819.2
2017-May-18 15:05N 41°43' E 003°09'419.0
2017-May-18 14:53N 41°46' E 003°12'918.8
2017-May-18 14:26N 41°53' E 003°18'5618.8
2017-May-18 11:26N 42°48' E 003°35'919.1
2017-May-18 10:58N 42°57' E 003°38'1018.9
2017-May-18 10:25N 43°07' E 003°42'819.0
2017-May-18 10:01N 43°14' E 003°44'918.3
2017-May-18 09:31N 43°23' E 003°44'2 3.3
2017-May-18 09:01N 43°24' E 003°42'0 0.0
2017-May-18 08:28N 43°24' E 003°42'0 0.0
2017-May-18 07:58N 43°24' E 003°42'0 0.0
2017-May-18 07:28N 43°24' E 003°42'0 0.0
2017-May-18 06:40N 43°24' E 003°42'0 0.0
2017-May-18 06:25N 43°24' E 003°42'0 0.0
2017-May-18 05:55N 43°24' E 003°42'0 0.0
2017-May-18 05:28N 43°24' E 003°42'0 0.0
2017-May-18 04:22N 43°24' E 003°42'0 0.0
2017-May-18 03:49N 43°24' E 003°42'0 0.0
2017-May-18 03:28N 43°24' E 003°42'0 0.0
2017-May-18 02:58N 43°24' E 003°42'0 0.0
2017-May-18 02:28N 43°24' E 003°42'0 0.0
2017-May-18 01:55N 43°24' E 003°42'0 0.0
2017-May-18 01:28N 43°24' E 003°42'0 0.0
2017-May-18 00:52N 43°24' E 003°42'0 0.0
2017-May-18 00:13N 43°24' E 003°42'0 0.0
2017-May-17 23:40N 43°24' E 003°42'0 0.0
2017-May-17 23:25N 43°24' E 003°42'0 0.0
2017-May-17 22:55N 43°24' E 003°42'0 0.0
2017-May-17 22:28N 43°24' E 003°42'0 0.0
2017-May-17 21:58N 43°24' E 003°42'0 0.0
2017-May-17 21:28N 43°24' E 003°42'0 0.0
2017-May-17 20:58N 43°24' E 003°42'0 0.0
2017-May-17 20:28N 43°24' E 003°42'0 0.0
2017-May-17 19:58N 43°24' E 003°42'0 0.0
2017-May-17 19:28N 43°24' E 003°42'0 0.0
2017-May-17 18:55N 43°24' E 003°42'0 0.0
2017-May-17 18:25N 43°24' E 003°42'0 0.0
2017-May-17 17:58N 43°24' E 003°42'0 0.0
2017-May-17 17:28N 43°24' E 003°42'0 0.0
2017-May-17 10:59N 43°24' E 003°42'4 6.7
2017-May-17 10:28N 43°21' E 003°45'2418.0
2017-May-17 09:08N 42°57' E 003°41'1319.1
2017-May-17 08:28N 42°45' E 003°44'1217.9
2017-May-17 07:48N 42°33' E 003°45'2518.5
2017-May-17 06:29N 42°13' E 003°25'2219.2
2017-May-17 05:20N 41°52' E 003°18'619.3
2017-May-17 05:00N 41°47' E 003°13'1019.3
2017-May-17 04:30N 41°39' E 003°06'1019.4
2017-May-17 04:00N 41°31' E 002°58'918.9
2017-May-17 03:30N 41°23' E 002°51'1018.7
2017-May-17 02:57N 41°15' E 002°43'818.9
2017-May-17 02:30N 41°08' E 002°37'1019.2
2017-May-17 02:00N 40°59' E 002°30'1019.4
2017-May-17 01:31N 40°52' E 002°23'1019.1
2017-May-17 01:00N 40°44' E 002°15'1018.9
2017-May-17 00:30N 40°36' E 002°09'918.9
2017-May-17 00:00N 40°28' E 002°02'1019.0
2017-May-16 23:30N 40°20' E 001°55'919.0
2017-May-16 23:00N 40°12' E 001°48'1019.0
2017-May-16 22:30N 40°04' E 001°41'1019.0
2017-May-16 22:00N 39°56' E 001°34'1019.2
2017-May-16 21:28N 39°48' E 001°27'2119.1
2017-May-16 20:23N 39°31' E 001°11'918.9
2017-May-16 19:56N 39°24' E 001°05'819.1
2017-May-16 19:30N 39°17' E 000°59'1019.2
2017-May-16 19:00N 39°09' E 000°52'1019.7
2017-May-16 18:30N 39°01' E 000°45'2219.6
2017-May-16 17:23N 38°43' E 000°29'819.8
2017-May-16 17:00N 38°36' E 000°24'1019.7
2017-May-16 16:30N 38°28' E 000°17'1119.9
2017-May-16 15:57N 38°19' E 000°09'919.8
2017-May-16 15:31N 38°12' E 000°03'1020.0
2017-May-16 15:01N 38°03' W 000°04'1020.0
2017-May-16 14:30N 37°55' W 000°11'2019.7
2017-May-16 13:30N 37°39' W 000°25'1019.4
2017-May-16 13:00N 37°31' W 000°33'1019.6
2017-May-16 12:30N 37°25' W 000°43'1019.4
2017-May-16 12:00N 37°19' W 000°52'1318.9
2017-May-16 11:20N 37°10' W 001°04'718.8
2017-May-16 10:57N 37°06' W 001°11'  

Dump ship's entire track history